Aérodrome :
LOGIN :

S'inscrire | Disclaimer

   EN    FR    IT 

 










Légende :    VFR   VFR Marginal   IFR   IFR Intensif   IFR Très Intensif
Visi : 
Plafond : 
>= 8 km
>= 3000ft
5 à 8 km
1000 à 3000 ft
1500m à 5 km
500 à 1000 ft
800 à 1500m
200 à 500 ft
< 800m
< 200 ft
Symboles :   Orages  Brouillard  Fortes neiges  Fortes précipitations  Vent > 20 kt
SIGMETs :   Divers  Orages  Givrage  Turbulence  Onde Orograph.  Cendres Volcan.






- Altitude de l'aérodrome : 29 ft
- Code IATA : SVG


ENZV - Sola

DERNIER METAR :
  • 210150Z 23012KT 4500 DZ FEW004 SCT006 BKN014 08/07 Q1030

METARs EXPIRÉS :
  • 210050Z 22012KT 8000 OVC019 08/07 Q1030
  • 210020Z 21011KT 8000 OVC018 08/07 Q1030
  • 202350Z 21010KT 8000 FEW006 OVC022 08/07 Q1030
  • 202320Z 20010KT 5000 BR FEW005 SCT012 BKN016 08/07 Q1031

TAF AMD TAF ENZV
Valide du 21 à 01h jusqu'au 22 à 00h UTC


2101/2124 23015KT 9999 BKN015
BECMG 2101/2103 4000 -DZRA BKN012
TEMPO 2103/2107 2000 DZRA BR BKN004
BECMG 2104/2106 32015KT
BECMG 2106/2108 9999 FEW012 BKN040



MET'MAP, la Météo Aéronautique d'un coup d'oeil ! - Copyright ORBIFLY Décembre 2007 - Disclaimer

ORBIFLY MET'MAP TEAM :

Programmation & Développement : Alexandra Zaïnal
Sur une idée originale de : Baudouin d'Aumeries
Assistance à la programmation : Marc-Olivier Méhu
Soutien technique & logistique : Manuel Goepfert

Contact : metmap@orbifly.com




SOURCES & CREDITS :

   NOAA